Time;durP1;ratioP1;P1;durP2;ratioP2;P2;SDS_P1;SDS_P2;PMS_P1;PMS_P2;Temp;Humidity;BMP_temperature;BMP_pressure;BME280_temperature;BME280_humidity;BME280_pressure;Samples;Min_cycle;Max_cycle;Signal;HPM_P1;HPM_P2
2021/09/05 00:02:23;;;;;;;17.60;11.32;;;15.00;99.90;;;;;;4896557;29;20470;-69
2021/09/05 00:04:51;;;;;;;15.88;11.07;;;15.00;99.90;;;;;;4877925;29;20044;-69
2021/09/05 00:07:19;;;;;;;15.52;11.70;;;14.90;99.90;;;;;;4886900;29;20464;-68
2021/09/05 00:09:46;;;;;;;13.50;10.77;;;14.90;99.90;;;;;;4889655;29;20033;-68
2021/09/05 00:12:14;;;;;;;15.00;10.93;;;14.90;99.90;;;;;;4889273;29;20052;-68
2021/09/05 00:14:41;;;;;;;14.88;11.00;;;14.90;99.90;;;;;;4888412;29;20045;-69
2021/09/05 00:17:08;;;;;;;15.95;10.90;;;14.90;99.90;;;;;;4888877;29;20343;-69
2021/09/05 00:19:36;;;;;;;14.05;11.05;;;14.90;99.90;;;;;;4892318;29;20431;-69
2021/09/05 00:22:03;;;;;;;16.83;11.52;;;15.00;99.90;;;;;;4884237;29;20516;-69
2021/09/05 00:24:30;;;;;;;16.13;11.23;;;14.90;99.90;;;;;;4891996;29;20057;-69
2021/09/05 00:26:58;;;;;;;16.83;11.52;;;14.90;99.90;;;;;;4887024;29;20059;-69
2021/09/05 00:29:25;;;;;;;14.77;10.98;;;14.90;99.90;;;;;;4894704;29;20420;-69
2021/09/05 00:31:53;;;;;;;14.63;11.02;;;14.90;99.90;;;;;;4886219;29;20067;-69
2021/09/05 00:34:21;;;;;;;15.68;11.00;;;14.90;99.90;;;;;;4876911;29;20076;-69
2021/09/05 00:36:48;;;;;;;16.05;11.05;;;14.90;99.90;;;;;;4894888;29;20052;-69
2021/09/05 00:39:18;;;;;;;15.30;10.40;;;14.80;99.90;;;;;;4895224;29;20404;-69
2021/09/05 00:41:47;;;;;;;14.70;11.07;;;14.80;99.90;;;;;;4894873;29;20128;-69
2021/09/05 00:44:14;;;;;;;15.27;11.10;;;14.80;99.90;;;;;;4893010;29;20060;-68
2021/09/05 00:46:42;;;;;;;14.45;10.75;;;14.80;99.90;;;;;;4889778;29;20124;-68
2021/09/05 00:49:11;;;;;;;15.63;11.82;;;14.70;99.90;;;;;;4882687;29;20370;-68
2021/09/05 00:51:41;;;;;;;14.82;11.63;;;14.70;99.90;;;;;;4892460;29;20072;-71
2021/09/05 00:54:14;;;;;;;13.98;11.20;;;14.70;99.90;;;;;;4893197;29;20045;-70
2021/09/05 00:56:44;;;;;;;20.08;12.38;;;14.70;99.90;;;;;;4876825;29;20504;-69
2021/09/05 00:59:21;;;;;;;15.32;11.07;;;14.70;99.90;;;;;;4877567;29;20056;-69
2021/09/05 01:01:50;;;;;;;16.10;12.00;;;14.70;99.90;;;;;;4884860;29;20049;-69
2021/09/05 01:04:18;;;;;;;16.67;11.10;;;14.70;99.90;;;;;;4876923;29;20052;-69
2021/09/05 01:06:49;;;;;;;17.63;12.50;;;14.60;99.90;;;;;;4892650;29;20132;-69
2021/09/05 01:09:17;;;;;;;16.60;11.77;;;14.60;99.90;;;;;;4876916;29;20104;-69
2021/09/05 01:11:46;;;;;;;16.08;11.75;;;14.50;99.90;;;;;;4892835;29;20041;-69
2021/09/05 01:14:15;;;;;;;17.58;11.95;;;14.50;99.90;;;;;;4902565;29;20056;-69
2021/09/05 01:16:43;;;;;;;18.08;11.73;;;14.50;99.90;;;;;;4882135;29;20037;-69
2021/09/05 01:19:29;;;;;;;18.40;11.65;;;14.40;99.90;;;;;;4885663;29;20052;-69
2021/09/05 01:22:05;;;;;;;17.73;12.20;;;14.40;99.90;;;;;;4893336;29;20134;-68
2021/09/05 01:24:56;;;;;;;18.08;12.73;;;14.40;99.90;;;;;;4835129;29;20118;-68
2021/09/05 01:27:46;;;;;;;15.77;11.73;;;14.40;99.90;;;;;;4768004;29;20515;-69
2021/09/05 01:30:32;;;;;;;17.60;11.98;;;14.40;99.90;;;;;;4780284;29;20063;-69
2021/09/05 01:33:19;;;;;;;16.27;11.77;;;14.40;99.90;;;;;;4787943;29;20057;-68
2021/09/05 01:36:05;;;;;;;16.20;11.27;;;14.40;99.90;;;;;;4771166;29;20067;-68
2021/09/05 01:38:54;;;;;;;15.05;11.23;;;14.30;99.90;;;;;;4764550;30;20503;-69
2021/09/05 01:41:43;;;;;;;17.63;11.85;;;14.30;99.90;;;;;;4781181;29;20047;-68
2021/09/05 01:44:45;;;;;;;16.80;11.32;;;14.30;99.90;;;;;;4778241;30;20062;-69
2021/09/05 01:47:22;;;;;;;16.92;12.00;;;14.30;99.90;;;;;;4761242;30;20840;-69
2021/09/05 01:50:08;;;;;;;15.85;10.70;;;14.30;99.90;;;;;;4767089;30;20092;-69
2021/09/05 01:53:14;;;;;;;16.52;11.32;;;14.30;99.90;;;;;;4761997;30;20056;-69
2021/09/05 01:56:10;;;;;;;15.82;10.75;;;14.20;99.90;;;;;;4760662;30;20059;-69
2021/09/05 01:59:10;;;;;;;14.75;11.32;;;14.20;99.90;;;;;;4743972;30;20056;-69
2021/09/05 02:01:56;;;;;;;16.83;11.73;;;14.20;99.90;;;;;;4747270;30;20060;-69
2021/09/05 02:04:42;;;;;;;15.80;11.90;;;14.20;99.90;;;;;;4777546;29;20057;-69
2021/09/05 02:07:45;;;;;;;16.25;11.50;;;14.20;99.90;;;;;;4764036;30;20114;-69
2021/09/05 02:10:32;;;;;;;15.00;11.27;;;14.20;99.90;;;;;;4753637;30;20126;-69
2021/09/05 02:13:20;;;;;;;17.52;11.68;;;14.20;99.90;;;;;;4763245;30;20063;-69
2021/09/05 02:16:07;;;;;;;16.92;11.88;;;14.10;99.90;;;;;;4751253;30;20160;-69
2021/09/05 02:18:46;;;;;;;18.65;12.38;;;14.10;99.90;;;;;;4782551;29;20058;-69
2021/09/05 02:21:41;;;;;;;15.68;11.25;;;14.10;99.90;;;;;;4790130;29;20471;-69
2021/09/05 02:24:28;;;;;;;15.18;11.05;;;14.10;99.90;;;;;;4814324;29;20053;-69
2021/09/05 02:27:19;;;;;;;16.23;11.77;;;14.00;99.90;;;;;;4828735;29;20059;-69
2021/09/05 02:29:51;;;;;;;16.38;11.63;;;14.00;99.90;;;;;;4800318;29;20410;-69
2021/09/05 02:32:37;;;;;;;16.15;11.15;;;14.00;99.90;;;;;;4817656;29;20043;-69
2021/09/05 02:35:24;;;;;;;18.13;12.45;;;14.00;99.90;;;;;;4822728;29;20615;-69
2021/09/05 02:38:18;;;;;;;15.90;11.95;;;13.90;99.90;;;;;;4810822;29;20178;-69
2021/09/05 02:41:16;;;;;;;16.80;11.45;;;13.90;99.90;;;;;;4837678;29;20060;-69
2021/09/05 02:43:59;;;;;;;17.95;12.15;;;13.80;99.90;;;;;;4885119;29;20101;-68
2021/09/05 02:46:53;;;;;;;14.65;11.30;;;13.90;99.90;;;;;;4886952;29;20055;-69
2021/09/05 02:49:53;;;;;;;15.10;11.07;;;13.90;99.90;;;;;;4834964;29;20061;-69
2021/09/05 02:52:46;;;;;;;16.38;11.93;;;13.90;99.90;;;;;;4833748;29;20068;-68
2021/09/05 02:55:52;;;;;;;14.45;10.85;;;13.90;99.90;;;;;;4799191;29;20046;-68
2021/09/05 02:58:39;;;;;;;15.57;11.55;;;13.90;99.90;;;;;;4798137;29;20104;-68
2021/09/05 03:01:30;;;;;;;15.55;11.40;;;13.90;99.90;;;;;;4797176;29;20067;-69
2021/09/05 03:04:15;;;;;;;14.95;11.82;;;13.90;99.90;;;;;;4783668;29;20066;-68
2021/09/05 03:06:57;;;;;;;16.77;11.70;;;13.90;99.90;;;;;;4798544;29;20141;-69
2021/09/05 03:09:42;;;;;;;13.32;10.82;;;13.90;99.90;;;;;;4798554;29;20078;-69
2021/09/05 03:12:37;;;;;;;14.95;10.88;;;13.80;99.90;;;;;;4786047;29;20050;-69
2021/09/05 03:15:34;;;;;;;16.58;11.27;;;13.80;99.90;;;;;;4787820;29;20150;-69
2021/09/05 03:18:24;;;;;;;16.77;11.80;;;13.80;99.90;;;;;;4797712;29;20150;-68
2021/09/05 03:21:07;;;;;;;16.77;11.18;;;13.70;99.90;;;;;;4801914;29;20055;-69
2021/09/05 03:24:00;;;;;;;17.23;11.18;;;13.70;99.90;;;;;;4798806;29;20133;-68
2021/09/05 03:26:46;;;;;;;17.23;12.00;;;13.70;99.90;;;;;;4876206;29;20052;-69
2021/09/05 03:29:37;;;;;;;16.90;11.30;;;13.70;99.90;;;;;;4894789;29;20045;-69
2021/09/05 03:32:28;;;;;;;16.10;10.98;;;13.70;99.90;;;;;;4870054;29;20416;-69
2021/09/05 03:35:14;;;;;;;17.13;12.35;;;13.60;99.90;;;;;;4895725;29;20052;-69
2021/09/05 03:38:08;;;;;;;17.23;11.60;;;13.60;99.90;;;;;;4867935;29;20052;-69
2021/09/05 03:40:54;;;;;;;20.33;12.02;;;13.60;99.90;;;;;;4891102;29;20448;-69
2021/09/05 03:43:51;;;;;;;16.00;11.40;;;13.60;99.90;;;;;;4840517;29;20057;-69
2021/09/05 03:46:37;;;;;;;17.17;11.25;;;13.60;99.90;;;;;;4842375;29;20049;-68
2021/09/05 03:49:28;;;;;;;17.73;12.30;;;13.60;99.90;;;;;;4855139;29;20049;-68
2021/09/05 03:51:56;;;;;;;17.58;12.00;;;13.60;99.90;;;;;;4823942;29;20057;-69
2021/09/05 03:54:23;;;;;;;15.68;11.10;;;13.50;99.90;;;;;;4854667;29;20053;-69
2021/09/05 03:56:52;;;;;;;19.45;11.45;;;13.50;99.90;;;;;;4856866;29;20041;-69
2021/09/05 03:59:19;;;;;;;17.45;11.13;;;13.40;99.90;;;;;;4824529;29;20049;-69
2021/09/05 04:01:47;;;;;;;17.05;11.82;;;13.40;99.90;;;;;;4840980;29;20059;-69
2021/09/05 04:04:23;;;;;;;16.30;11.07;;;13.40;99.90;;;;;;4861559;29;20063;-69
2021/09/05 04:07:00;;;;;;;15.27;11.05;;;13.50;99.90;;;;;;4855107;29;20064;-69
2021/09/05 04:12:15;;;;;;;16.00;11.10;;;13.40;99.90;;;;;;4856048;29;20160;-68
2021/09/05 04:14:43;;;;;;;15.05;10.98;;;13.50;99.90;;;;;;4855578;29;20323;-68
2021/09/05 04:17:10;;;;;;;16.08;11.73;;;13.50;99.90;;;;;;4840178;29;20049;-68
2021/09/05 04:19:37;;;;;;;16.92;11.82;;;13.50;99.90;;;;;;4863640;29;20063;-68
2021/09/05 04:22:05;;;;;;;16.95;11.70;;;13.50;99.90;;;;;;4893344;29;20099;-68
2021/09/05 04:24:32;;;;;;;15.18;10.18;;;13.40;99.90;;;;;;4895826;29;20048;-68
2021/09/05 04:26:59;;;;;;;14.60;11.07;;;13.40;99.90;;;;;;4887964;29;20044;-68
2021/09/05 04:29:27;;;;;;;15.45;11.60;;;13.40;99.90;;;;;;4893314;29;20050;-69
2021/09/05 04:31:54;;;;;;;16.45;11.20;;;13.40;99.90;;;;;;4897699;29;20044;-68
2021/09/05 04:34:21;;;;;;;19.65;10.90;;;13.40;99.90;;;;;;4891890;29;20044;-68
2021/09/05 04:36:50;;;;;;;15.30;11.55;;;13.40;99.90;;;;;;4892679;29;20071;-68
2021/09/05 04:39:17;;;;;;;16.55;11.75;;;13.40;99.90;;;;;;4889183;29;20072;-68
2021/09/05 04:41:46;;;;;;;14.75;11.05;;;13.40;99.90;;;;;;4889542;29;20065;-68
2021/09/05 04:44:13;;;;;;;16.10;11.40;;;13.40;99.90;;;;;;4887279;29;20140;-69
2021/09/05 04:46:41;;;;;;;15.98;12.23;;;13.40;99.90;;;;;;4893921;29;20071;-69
2021/09/05 04:49:08;;;;;;;15.27;11.35;;;13.40;99.90;;;;;;4878073;29;20053;-69
2021/09/05 04:51:36;;;;;;;18.02;12.57;;;13.40;99.90;;;;;;4894710;29;20521;-69
2021/09/05 04:54:04;;;;;;;16.42;12.38;;;13.40;99.90;;;;;;4894427;29;20368;-68
2021/09/05 04:56:31;;;;;;;14.85;11.85;;;13.40;99.90;;;;;;4884820;29;20069;-68
2021/09/05 04:58:58;;;;;;;16.80;11.60;;;13.40;99.90;;;;;;4885793;29;20424;-68
2021/09/05 05:01:26;;;;;;;17.65;12.98;;;13.40;99.90;;;;;;4892593;29;20092;-68
2021/09/05 05:03:56;;;;;;;16.70;12.30;;;13.50;99.90;;;;;;4896411;29;20052;-68
2021/09/05 05:06:40;;;;;;;15.77;11.90;;;13.50;99.90;;;;;;4892341;29;20402;-68
2021/09/05 05:09:09;;;;;;;22.27;12.80;;;13.50;99.90;;;;;;4895501;29;20048;-69
2021/09/05 05:11:39;;;;;;;15.65;11.45;;;13.50;99.90;;;;;;4907276;29;20051;-69
2021/09/05 05:14:07;;;;;;;18.00;11.63;;;13.60;99.90;;;;;;4888320;29;20408;-69
2021/09/05 05:16:35;;;;;;;18.60;12.00;;;13.60;99.90;;;;;;4862023;29;20139;-68
2021/09/05 05:19:03;;;;;;;15.55;11.20;;;13.60;99.90;;;;;;4893720;29;20056;-69
2021/09/05 05:21:32;;;;;;;18.35;11.63;;;13.70;99.90;;;;;;4877005;29;20052;-68
2021/09/05 05:23:59;;;;;;;15.23;11.20;;;13.70;99.90;;;;;;4892437;29;20075;-68
2021/09/05 05:26:27;;;;;;;16.15;11.45;;;13.70;99.90;;;;;;4886013;29;20037;-68
2021/09/05 05:28:56;;;;;;;14.98;10.98;;;13.80;99.90;;;;;;4886695;29;20500;-68
2021/09/05 05:31:23;;;;;;;17.63;11.90;;;13.90;99.90;;;;;;4893198;29;20044;-69
2021/09/05 05:33:51;;;;;;;15.07;11.13;;;13.90;99.90;;;;;;4893423;29;20280;-69
2021/09/05 05:36:18;;;;;;;15.55;10.98;;;13.90;99.90;;;;;;4891646;29;20241;-69
2021/09/05 05:38:46;;;;;;;16.65;12.38;;;14.00;99.90;;;;;;4887506;29;20044;-69
2021/09/05 05:41:14;;;;;;;17.38;11.90;;;14.10;99.90;;;;;;4892357;29;20048;-69
2021/09/05 05:43:42;;;;;;;16.75;12.43;;;14.10;99.90;;;;;;4880159;29;20045;-69
2021/09/05 05:46:09;;;;;;;14.93;11.57;;;14.10;99.90;;;;;;4888790;29;20503;-69
2021/09/05 05:48:36;;;;;;;15.00;11.60;;;14.20;99.90;;;;;;4892722;29;20044;-69
2021/09/05 05:51:04;;;;;;;15.95;12.40;;;14.20;99.90;;;;;;4893597;29;20143;-69
2021/09/05 05:53:31;;;;;;;16.00;11.55;;;14.30;99.90;;;;;;4891896;29;20463;-69
2021/09/05 05:55:58;;;;;;;16.10;11.43;;;14.40;99.90;;;;;;4883613;29;20164;-69
2021/09/05 05:58:27;;;;;;;18.85;11.82;;;14.40;99.90;;;;;;4892053;29;20411;-69
2021/09/05 06:01:08;;;;;;;17.00;12.45;;;14.50;99.90;;;;;;4884090;29;20562;-69
2021/09/05 06:03:36;;;;;;;13.13;10.20;;;14.50;99.90;;;;;;4892708;29;20080;-68
2021/09/05 06:06:05;;;;;;;15.32;11.73;;;14.60;99.90;;;;;;4894352;29;20079;-68
2021/09/05 06:08:33;;;;;;;17.50;11.98;;;14.70;99.90;;;;;;4868107;29;20427;-68
2021/09/05 06:11:01;;;;;;;14.75;11.43;;;14.80;99.90;;;;;;4894193;29;20087;-68
2021/09/05 06:13:28;;;;;;;15.32;11.20;;;14.90;99.90;;;;;;4901443;29;20083;-69
2021/09/05 06:15:55;;;;;;;16.55;11.80;;;15.00;99.90;;;;;;4895062;29;20067;-69
2021/09/05 06:18:23;;;;;;;15.57;12.70;;;15.10;99.90;;;;;;4893058;29;20049;-69
2021/09/05 06:20:50;;;;;;;20.30;14.60;;;15.20;99.90;;;;;;4892238;29;20141;-69
2021/09/05 06:23:17;;;;;;;15.82;12.38;;;15.30;99.90;;;;;;4893293;29;20077;-69
2021/09/05 06:25:44;;;;;;;15.95;12.15;;;15.30;99.90;;;;;;4891982;29;20040;-69
2021/09/05 06:28:12;;;;;;;16.33;11.93;;;15.50;99.90;;;;;;4892295;29;20397;-68
2021/09/05 06:30:39;;;;;;;16.27;12.32;;;15.60;99.90;;;;;;4891313;29;20052;-68
2021/09/05 06:33:06;;;;;;;16.77;12.75;;;15.70;99.90;;;;;;4888185;29;20053;-68
2021/09/05 06:35:33;;;;;;;18.38;13.27;;;15.70;99.90;;;;;;4886960;29;20472;-70
2021/09/05 06:38:01;;;;;;;17.33;12.82;;;15.90;99.90;;;;;;4889041;29;20047;-69
2021/09/05 06:40:29;;;;;;;17.45;13.15;;;16.00;99.90;;;;;;4887190;29;20048;-69
2021/09/05 06:42:56;;;;;;;16.48;12.65;;;16.10;99.90;;;;;;4880034;29;20127;-69
2021/09/05 06:45:27;;;;;;;16.30;12.53;;;16.20;99.90;;;;;;4884583;29;20392;-68
2021/09/05 06:47:55;;;;;;;16.15;11.77;;;16.30;99.90;;;;;;4892997;29;20045;-69
2021/09/05 06:50:22;;;;;;;16.33;12.45;;;16.40;99.90;;;;;;4876290;29;20048;-69
2021/09/05 06:52:50;;;;;;;17.13;12.50;;;16.50;99.90;;;;;;4876537;29;20500;-69
2021/09/05 06:55:17;;;;;;;18.92;13.65;;;16.60;99.90;;;;;;4890108;29;20072;-68
2021/09/05 06:57:44;;;;;;;16.67;12.65;;;16.70;99.90;;;;;;4896515;29;20048;-68
2021/09/05 07:00:12;;;;;;;16.58;11.02;;;16.80;99.90;;;;;;4896085;29;20053;-68
2021/09/05 07:02:39;;;;;;;16.92;12.77;;;16.90;99.90;;;;;;4890602;29;20045;-69
2021/09/05 07:05:07;;;;;;;18.35;12.07;;;17.00;99.90;;;;;;4888850;29;20067;-69
2021/09/05 07:07:43;;;;;;;15.98;11.73;;;17.10;99.90;;;;;;4895197;29;20040;-69
2021/09/05 07:10:11;;;;;;;17.88;12.30;;;17.20;99.90;;;;;;4895640;29;20080;-68
2021/09/05 07:12:41;;;;;;;17.13;11.77;;;17.30;99.90;;;;;;4884454;29;20041;-69
2021/09/05 07:15:09;;;;;;;14.98;11.23;;;17.40;99.90;;;;;;4889148;29;20147;-68
2021/09/05 07:17:37;;;;;;;16.48;11.65;;;17.50;99.90;;;;;;4894462;29;20337;-68
2021/09/05 07:20:04;;;;;;;17.88;11.98;;;17.60;99.90;;;;;;4895100;29;20049;-68
2021/09/05 07:22:33;;;;;;;16.05;11.70;;;17.70;99.90;;;;;;4888554;29;20473;-68
2021/09/05 07:25:07;;;;;;;17.30;12.63;;;17.70;99.90;;;;;;4893739;29;20040;-69
2021/09/05 07:27:35;;;;;;;18.65;12.88;;;17.80;99.90;;;;;;4892192;29;20524;-69
2021/09/05 07:30:07;;;;;;;20.42;14.93;;;17.90;99.90;;;;;;4877788;29;20121;-69
2021/09/05 07:32:35;;;;;;;15.93;11.77;;;18.00;99.90;;;;;;4889026;29;20057;-69
2021/09/05 07:35:03;;;;;;;14.55;10.18;;;18.10;99.90;;;;;;4892484;29;20131;-68
2021/09/05 07:37:30;;;;;;;16.92;12.82;;;18.30;99.90;;;;;;4890459;29;20048;-68
2021/09/05 07:39:57;;;;;;;25.08;18.85;;;18.50;99.90;;;;;;4894608;29;20052;-69
2021/09/05 07:42:25;;;;;;;16.10;12.30;;;18.70;99.90;;;;;;4890355;29;20088;-69
2021/09/05 07:44:54;;;;;;;15.38;11.05;;;18.70;99.90;;;;;;4893460;29;20135;-69
2021/09/05 07:47:22;;;;;;;14.98;9.63;;;18.80;99.90;;;;;;4889731;29;20051;-69
2021/09/05 07:49:51;;;;;;;16.13;10.27;;;19.00;99.90;;;;;;4894085;29;20044;-69
2021/09/05 07:52:18;;;;;;;15.05;10.50;;;19.10;99.90;;;;;;4885982;29;20044;-68
2021/09/05 07:54:45;;;;;;;14.30;10.45;;;19.20;99.90;;;;;;4890772;29;20055;-69
2021/09/05 07:57:12;;;;;;;15.73;9.13;;;19.40;99.90;;;;;;4893235;29;20049;-69
2021/09/05 07:59:40;;;;;;;14.75;10.07;;;19.40;99.90;;;;;;4887331;29;20493;-69
2021/09/05 08:02:07;;;;;;;15.10;9.25;;;19.60;99.90;;;;;;4884475;29;20084;-70
2021/09/05 08:04:35;;;;;;;13.48;10.05;;;19.70;99.90;;;;;;4894385;29;20124;-69
2021/09/05 08:07:02;;;;;;;15.02;11.73;;;19.80;99.90;;;;;;4882043;29;20049;-70
2021/09/05 08:09:29;;;;;;;14.82;11.00;;;19.80;99.90;;;;;;4893605;29;20064;-70
2021/09/05 08:11:57;;;;;;;13.50;10.23;;;19.90;99.90;;;;;;4891427;29;20059;-70
2021/09/05 08:14:24;;;;;;;14.93;10.70;;;20.00;99.90;;;;;;4865575;29;20049;-70
2021/09/05 08:16:51;;;;;;;15.90;11.05;;;20.10;99.90;;;;;;4895304;29;20412;-70
2021/09/05 08:19:19;;;;;;;15.07;10.27;;;20.20;99.90;;;;;;4895036;29;20048;-70
2021/09/05 08:21:47;;;;;;;18.10;13.40;;;20.30;99.90;;;;;;4894273;29;20052;-69
2021/09/05 08:24:14;;;;;;;13.38;10.75;;;20.30;99.90;;;;;;4882798;29;20132;-69
2021/09/05 08:26:42;;;;;;;19.77;14.13;;;20.20;99.90;;;;;;4892086;29;20450;-69
2021/09/05 08:29:10;;;;;;;16.35;12.18;;;20.30;99.90;;;;;;4909611;29;20147;-69
2021/09/05 08:31:37;;;;;;;16.88;10.70;;;20.40;99.90;;;;;;4898523;29;20087;-69
2021/09/05 08:34:05;;;;;;;15.75;11.23;;;20.50;99.90;;;;;;4892522;29;20591;-69
2021/09/05 08:36:33;;;;;;;15.73;12.18;;;20.60;99.90;;;;;;4894736;29;20058;-69
2021/09/05 08:39:00;;;;;;;17.15;12.85;;;20.70;99.90;;;;;;4882290;29;20416;-69
2021/09/05 08:41:27;;;;;;;18.67;13.55;;;20.80;99.90;;;;;;4909729;29;20419;-69
2021/09/05 08:43:57;;;;;;;16.95;12.60;;;20.80;99.90;;;;;;4894183;29;20097;-70
2021/09/05 08:46:25;;;;;;;16.23;12.10;;;21.00;99.90;;;;;;4878189;29;20476;-69
2021/09/05 08:48:54;;;;;;;18.38;12.52;;;21.10;99.90;;;;;;4878282;29;20603;-69
2021/09/05 08:51:22;;;;;;;17.42;11.40;;;21.10;99.90;;;;;;4893819;29;20041;-69
2021/09/05 08:53:49;;;;;;;12.82;9.90;;;21.20;99.90;;;;;;4891147;29;20442;-69
2021/09/05 08:56:17;;;;;;;13.77;9.95;;;21.30;99.90;;;;;;4892330;29;20457;-69
2021/09/05 08:58:44;;;;;;;13.02;9.05;;;21.40;99.90;;;;;;4891835;29;20072;-69
2021/09/05 09:01:27;;;;;;;11.70;8.10;;;21.50;99.90;;;;;;4889609;29;20093;-69
2021/09/05 09:04:10;;;;;;;12.27;8.88;;;21.50;99.90;;;;;;4892913;29;20068;-69
2021/09/05 09:06:41;;;;;;;11.65;8.60;;;21.50;99.90;;;;;;4891540;29;20123;-69
2021/09/05 09:09:11;;;;;;;12.25;9.15;;;21.60;99.90;;;;;;4892396;29;20508;-69
2021/09/05 09:11:56;;;;;;;14.30;9.45;;;21.60;99.90;;;;;;4892788;29;20489;-68
2021/09/05 09:14:47;;;;;;;15.52;9.45;;;21.50;99.90;;;;;;4884138;29;20048;-69
2021/09/05 09:17:17;;;;;;;12.20;8.77;;;21.50;99.90;;;;;;4893918;29;20147;-69
2021/09/05 09:19:46;;;;;;;12.23;8.15;;;21.70;99.90;;;;;;4893155;29;20044;-69
2021/09/05 09:22:20;;;;;;;11.02;8.32;;;21.90;99.90;;;;;;4894535;29;20131;-68
2021/09/05 09:24:48;;;;;;;11.85;8.40;;;22.20;99.90;;;;;;4893337;29;20071;-69
2021/09/05 09:27:15;;;;;;;14.63;10.18;;;22.40;99.90;;;;;;4894231;29;20104;-69
2021/09/05 09:29:43;;;;;;;15.98;10.02;;;22.60;99.90;;;;;;4889761;29;20044;-70
2021/09/05 09:32:21;;;;;;;11.45;8.77;;;22.70;99.90;;;;;;4903627;29;20414;-69
2021/09/05 09:34:52;;;;;;;13.32;8.95;;;22.80;99.90;;;;;;4875758;29;20097;-68
2021/09/05 09:37:22;;;;;;;11.35;8.55;;;23.00;99.90;;;;;;4887763;29;20045;-69
2021/09/05 09:39:58;;;;;;;9.57;7.50;;;23.10;99.90;;;;;;4893212;29;20045;-69
2021/09/05 09:42:41;;;;;;;16.98;12.10;;;23.20;99.90;;;;;;4893625;29;20131;-69
2021/09/05 09:45:16;;;;;;;12.95;8.77;;;23.20;99.90;;;;;;4879092;29;20036;-69
2021/09/05 09:47:50;;;;;;;10.20;7.25;;;23.10;99.90;;;;;;4871247;29;20052;-68
2021/09/05 09:50:20;;;;;;;11.82;7.55;;;23.30;99.90;;;;;;4896962;29;20520;-68
2021/09/05 09:52:48;;;;;;;11.30;7.55;;;23.50;99.90;;;;;;4892587;29;20619;-68
2021/09/05 09:55:16;;;;;;;10.13;7.20;;;23.80;99.90;;;;;;4887967;29;20125;-67
2021/09/05 09:57:43;;;;;;;9.93;7.18;;;23.80;99.90;;;;;;4890651;29;20643;-69
2021/09/05 10:00:12;;;;;;;9.75;6.80;;;24.00;99.90;;;;;;4892624;29;20127;-69
2021/09/05 10:02:45;;;;;;;8.55;6.53;;;24.10;99.90;;;;;;4876990;29;20048;-68
2021/09/05 10:05:13;;;;;;;9.23;6.65;;;24.40;99.90;;;;;;4890272;29;20606;-69
2021/09/05 10:07:44;;;;;;;13.23;9.60;;;24.60;99.90;;;;;;4891097;29;20061;-68
2021/09/05 10:10:13;;;;;;;12.50;7.87;;;24.80;99.90;;;;;;4890909;29;20108;-68
2021/09/05 10:12:41;;;;;;;10.07;7.10;;;25.00;99.90;;;;;;4892314;29;20138;-68
2021/09/05 10:15:10;;;;;;;10.23;7.25;;;25.20;99.90;;;;;;4889062;29;20052;-69
2021/09/05 10:17:38;;;;;;;12.95;7.25;;;25.50;99.90;;;;;;4880181;29;20147;-69
2021/09/05 10:20:07;;;;;;;11.50;8.32;;;25.60;99.90;;;;;;4893579;29;20056;-69
2021/09/05 10:22:35;;;;;;;9.88;7.38;;;25.70;99.90;;;;;;4893189;29;20412;-69
2021/09/05 10:25:04;;;;;;;9.90;6.53;;;25.70;99.90;;;;;;4892596;29;20415;-69
2021/09/05 10:27:37;;;;;;;8.25;6.00;;;25.70;99.90;;;;;;4889946;29;20041;-69
2021/09/05 10:30:08;;;;;;;10.63;8.05;;;25.90;99.90;;;;;;4879351;29;20043;-70
2021/09/05 10:32:48;;;;;;;8.35;6.13;;;26.20;99.90;;;;;;4897540;29;20045;-69
2021/09/05 10:35:46;;;;;;;10.43;8.35;;;26.40;99.90;;;;;;4887618;29;20523;-69
2021/09/05 10:38:18;;;;;;;10.25;7.45;;;26.50;99.90;;;;;;4868629;29;20440;-69
2021/09/05 10:40:48;;;;;;;8.10;6.20;;;26.70;99.90;;;;;;4889599;29;20044;-69
2021/09/05 10:43:17;;;;;;;8.77;5.88;;;27.00;99.90;;;;;;4885108;29;20045;-69
2021/09/05 10:45:50;;;;;;;7.72;6.05;;;27.00;99.90;;;;;;4895852;29;20209;-69
2021/09/05 10:48:38;;;;;;;9.38;6.25;;;26.90;99.90;;;;;;4895324;29;20055;-69
2021/09/05 10:51:07;;;;;;;7.28;5.35;;;26.90;99.90;;;;;;4906226;29;20044;-69
2021/09/05 10:53:56;;;;;;;8.18;5.70;;;27.10;99.90;;;;;;4894728;29;20403;-69
2021/09/05 10:56:31;;;;;;;8.40;6.32;;;27.50;99.90;;;;;;4889748;29;20120;-69
2021/09/05 10:59:01;;;;;;;9.52;6.13;;;27.90;99.90;;;;;;4896117;29;20048;-69
2021/09/05 11:01:35;;;;;;;9.90;7.47;;;27.80;99.90;;;;;;4890858;29;20037;-69
2021/09/05 11:04:13;;;;;;;8.60;6.90;;;28.00;99.90;;;;;;4895328;29;20040;-69
2021/09/05 11:06:44;;;;;;;19.42;15.38;;;28.10;99.90;;;;;;4890698;29;20407;-69
2021/09/05 11:09:20;;;;;;;15.00;11.50;;;28.30;99.90;;;;;;4910526;29;20235;-69
2021/09/05 11:11:59;;;;;;;12.27;7.10;;;28.50;99.90;;;;;;4888972;29;20052;-69
2021/09/05 11:14:35;;;;;;;10.45;7.35;;;28.20;99.90;;;;;;4896391;29;20132;-69
2021/09/05 11:17:30;;;;;;;17.75;9.13;;;28.10;99.90;;;;;;4911003;29;20135;-68
2021/09/05 11:20:02;;;;;;;11.40;9.82;;;28.30;99.90;;;;;;4905734;29;20124;-70
2021/09/05 11:22:41;;;;;;;10.35;6.72;;;28.70;99.90;;;;;;4893144;29;20048;-69
2021/09/05 11:25:15;;;;;;;11.07;7.35;;;28.80;99.90;;;;;;4895000;29;20052;-69
2021/09/05 11:27:58;;;;;;;7.88;5.93;;;28.40;99.90;;;;;;4902233;29;20036;-69
2021/09/05 11:30:29;;;;;;;8.38;6.03;;;28.00;99.90;;;;;;4896404;29;20317;-69
2021/09/05 11:33:04;;;;;;;9.23;5.85;;;27.50;99.90;;;;;;4906145;29;20562;-69
2021/09/05 11:35:39;;;;;;;6.53;4.95;;;28.00;99.90;;;;;;4893016;29;20052;-69
2021/09/05 11:38:07;;;;;;;11.02;5.35;;;28.80;99.90;;;;;;4896311;29;20045;-69
2021/09/05 11:40:42;;;;;;;8.75;5.60;;;29.10;99.90;;;;;;4895361;29;20071;-69
2021/09/05 11:43:27;;;;;;;5.97;4.38;;;29.00;99.90;;;;;;4896323;29;20521;-69
2021/09/05 11:45:56;;;;;;;7.88;5.55;;;28.70;99.90;;;;;;4885275;29;20453;-69
2021/09/05 11:48:28;;;;;;;7.63;5.40;;;28.50;99.90;;;;;;4895733;29;20156;-69
2021/09/05 11:51:02;;;;;;;7.85;5.65;;;28.30;99.90;;;;;;4896820;29;20411;-70
2021/09/05 11:53:31;;;;;;;7.80;5.55;;;28.70;99.90;;;;;;4896056;29;20052;-69
2021/09/05 11:55:58;;;;;;;9.23;5.03;;;29.10;99.90;;;;;;4879883;29;20559;-69
2021/09/05 11:58:26;;;;;;;10.35;5.53;;;29.30;99.90;;;;;;4895225;29;20496;-70
2021/09/05 12:00:56;;;;;;;7.35;4.82;;;30.00;99.90;;;;;;4890608;29;20044;-70
2021/09/05 12:03:29;;;;;;;6.93;4.97;;;30.70;99.50;;;;;;4894296;29;20127;-68
2021/09/05 12:05:58;;;;;;;7.35;5.80;;;31.20;98.20;;;;;;4883472;29;20059;-69
2021/09/05 12:08:26;;;;;;;7.72;5.28;;;31.70;97.80;;;;;;4891223;29;20080;-69
2021/09/05 12:11:05;;;;;;;7.30;5.63;;;32.10;97.20;;;;;;4895158;29;20052;-68
2021/09/05 12:13:47;;;;;;;7.03;5.13;;;32.60;95.70;;;;;;4893901;29;20456;-69
2021/09/05 12:16:22;;;;;;;7.45;5.35;;;32.60;94.20;;;;;;4895738;29;20579;-69
2021/09/05 12:19:02;;;;;;;7.65;5.65;;;32.90;93.70;;;;;;4870505;29;20053;-69
2021/09/05 12:21:37;;;;;;;6.78;5.03;;;32.80;91.90;;;;;;4892285;29;20393;-69
2021/09/05 12:24:20;;;;;;;6.68;4.60;;;32.10;91.30;;;;;;4895123;29;20052;-68
2021/09/05 12:26:49;;;;;;;9.30;5.07;;;31.70;91.90;;;;;;4895891;29;20068;-68
2021/09/05 12:29:29;;;;;;;7.85;5.80;;;31.00;92.30;;;;;;4896225;29;20050;-69
2021/09/05 12:32:02;;;;;;;7.10;5.20;;;30.50;92.90;;;;;;4904378;29;20047;-69
2021/09/05 12:34:47;;;;;;;7.68;4.65;;;30.60;92.60;;;;;;4888861;29;20052;-69
2021/09/05 12:37:20;;;;;;;7.65;4.95;;;31.10;92.60;;;;;;4885074;29;20539;-69
2021/09/05 12:39:54;;;;;;;7.20;4.75;;;31.60;92.60;;;;;;4895448;29;20052;-70
2021/09/05 12:42:27;;;;;;;5.75;4.53;;;31.80;91.20;;;;;;4909326;29;20132;-70
2021/09/05 12:45:01;;;;;;;7.75;5.20;;;31.90;89.80;;;;;;4878815;29;20040;-70
2021/09/05 12:47:30;;;;;;;6.10;4.63;;;31.70;87.80;;;;;;4896417;29;20492;-70
2021/09/05 12:49:59;;;;;;;9.50;5.07;;;31.30;88.70;;;;;;4895477;29;20117;-70
2021/09/05 12:52:32;;;;;;;6.70;5.10;;;30.80;90.60;;;;;;4894200;29;20052;-70
2021/09/05 12:55:01;;;;;;;8.15;4.70;;;30.50;91.40;;;;;;4883358;29;20079;-69
2021/09/05 12:57:32;;;;;;;7.00;5.25;;;30.30;91.50;;;;;;4878062;29;20033;-69
2021/09/05 12:59:59;;;;;;;6.55;4.50;;;30.10;91.60;;;;;;4895338;29;20059;-70
2021/09/05 13:02:28;;;;;;;7.20;5.43;;;29.80;92.30;;;;;;4895199;29;20131;-69
2021/09/05 13:04:57;;;;;;;7.82;5.13;;;29.50;92.70;;;;;;4897280;29;20554;-69
2021/09/05 13:07:25;;;;;;;6.72;4.97;;;29.40;92.80;;;;;;4882346;29;20076;-69
2021/09/05 13:09:58;;;;;;;6.97;4.72;;;29.50;92.30;;;;;;4885737;29;20064;-69